createdAt,value
2016-12-15T00:00:01.368Z,0
2016-12-15T00:01:16.306Z,0
2016-12-15T00:02:01.403Z,0
2016-12-15T00:03:01.422Z,0
2016-12-15T00:04:01.436Z,0
2016-12-15T00:05:01.453Z,0
2016-12-15T00:06:01.472Z,0
2016-12-15T00:07:01.489Z,0
2016-12-15T00:08:01.503Z,0
2016-12-15T00:09:01.521Z,0
2016-12-15T00:10:01.543Z,0
2016-12-15T00:13:01.588Z,0
2016-12-15T00:14:01.603Z,0
2016-12-15T00:16:01.636Z,0
2016-12-15T00:17:16.582Z,0
2016-12-15T00:18:01.672Z,0
2016-12-15T00:19:01.685Z,0
2016-12-15T00:20:01.707Z,0
2016-12-15T00:21:01.720Z,0
2016-12-15T00:22:01.735Z,0
2016-12-15T00:23:01.752Z,0
2016-12-15T00:24:01.773Z,0
2016-12-15T00:25:01.785Z,0
2016-12-15T00:26:01.802Z,0
2016-12-15T00:27:01.819Z,0
2016-12-15T00:28:01.845Z,0
2016-12-15T00:29:01.855Z,0
2016-12-15T00:30:01.872Z,0
2016-12-15T00:31:01.885Z,0
2016-12-15T00:32:01.909Z,0
2016-12-15T00:33:16.843Z,0
2016-12-15T00:34:01.939Z,0
2016-12-15T00:35:01.954Z,0
2016-12-15T00:36:01.971Z,0
2016-12-15T00:37:02.292Z,0
2016-12-15T00:38:02.002Z,0
2016-12-15T00:39:02.072Z,0
2016-12-15T00:40:02.044Z,0
2016-12-15T00:41:02.054Z,0
2016-12-15T00:42:02.070Z,0
2016-12-15T00:44:02.104Z,0
2016-12-15T00:46:02.139Z,0
2016-12-15T00:47:02.152Z,0
2016-12-15T00:48:02.172Z,0
2016-12-15T00:49:17.104Z,0
2016-12-15T00:50:02.201Z,0
2016-12-15T00:51:02.220Z,0
2016-12-15T00:52:02.240Z,0
2016-12-15T00:53:02.252Z,0
2016-12-15T00:54:02.296Z,0
2016-12-15T00:55:17.204Z,0
2016-12-15T00:56:17.221Z,0
2016-12-15T00:58:02.334Z,0
2016-12-15T00:59:02.379Z,0
2016-12-15T01:01:02.391Z,0
2016-12-15T01:02:02.406Z,0
2016-12-15T01:03:02.422Z,0
2016-12-15T01:04:17.360Z,0
2016-12-15T01:05:02.456Z,0
2016-12-15T01:06:02.474Z,0
2016-12-15T01:07:02.490Z,0
2016-12-15T01:08:02.534Z,0
2016-12-15T01:09:02.521Z,0
2016-12-15T01:10:17.456Z,0
2016-12-15T01:11:17.472Z,0
2016-12-15T01:12:02.571Z,0
2016-12-15T01:13:02.590Z,0
2016-12-15T01:14:02.608Z,0
2016-12-15T01:15:02.623Z,0
2016-12-15T01:16:02.644Z,0
2016-12-15T01:17:02.654Z,0
2016-12-15T01:18:02.674Z,0
2016-12-15T01:19:02.688Z,0
2016-12-15T01:20:02.707Z,0
2016-12-15T01:21:02.726Z,0
2016-12-15T01:22:02.738Z,0
2016-12-15T01:23:02.758Z,0
2016-12-15T01:24:02.771Z,0
2016-12-15T01:25:02.788Z,0
2016-12-15T01:26:02.812Z,0
2016-12-15T01:27:02.822Z,0
2016-12-15T01:28:02.989Z,0
2016-12-15T01:29:02.855Z,0
2016-12-15T01:30:17.787Z,0
2016-12-15T01:31:17.807Z,0
2016-12-15T01:32:02.959Z,0
2016-12-15T01:33:02.927Z,0
2016-12-15T01:34:02.941Z,0
2016-12-15T01:35:02.956Z,0
2016-12-15T01:36:17.888Z,0
2016-12-15T01:37:02.988Z,0
2016-12-15T01:38:03.006Z,0
2016-12-15T01:39:03.025Z,0
2016-12-15T01:40:03.039Z,0
2016-12-15T01:41:03.054Z,0
2016-12-15T01:42:03.076Z,0
2016-12-15T01:43:03.401Z,0
2016-12-15T01:45:03.124Z,0
2016-12-15T01:46:03.139Z,0
2016-12-15T01:47:03.157Z,0
2016-12-15T01:48:18.090Z,0
2016-12-15T01:49:03.190Z,0
2016-12-15T01:50:03.207Z,0
2016-12-15T01:51:03.225Z,0
2016-12-15T01:52:18.155Z,0
2016-12-15T01:53:03.254Z,0
2016-12-15T01:54:03.274Z,0
2016-12-15T01:55:03.300Z,0
2016-12-15T01:56:03.309Z,0
2016-12-15T01:57:03.324Z,0
2016-12-15T01:58:03.340Z,0
2016-12-15T01:59:18.273Z,0
2016-12-15T02:00:03.425Z,0
2016-12-15T02:01:03.390Z,0
2016-12-15T02:02:03.403Z,0
2016-12-15T02:03:18.340Z,0
2016-12-15T02:04:03.440Z,0
2016-12-15T02:06:03.478Z,0
2016-12-15T02:07:03.490Z,0
2016-12-15T02:08:18.428Z,0
2016-12-15T02:09:03.524Z,0
2016-12-15T02:10:03.541Z,0
2016-12-15T02:11:18.476Z,0
2016-12-15T02:12:03.575Z,0
2016-12-15T02:13:03.595Z,0
2016-12-15T02:14:03.606Z,0
2016-12-15T02:15:03.626Z,0
2016-12-15T02:16:03.646Z,0
2016-12-15T02:17:03.704Z,0
2016-12-15T02:18:03.982Z,0
2016-12-15T02:19:03.692Z,0
2016-12-15T02:21:03.719Z,0
2016-12-15T02:22:18.665Z,0
2016-12-15T02:23:03.759Z,0
2016-12-15T02:24:18.691Z,0
2016-12-15T02:25:03.819Z,0
2016-12-15T02:26:03.809Z,0
2016-12-15T02:27:04.129Z,0
2016-12-15T02:28:03.888Z,0
2016-12-15T02:29:03.861Z,0
2016-12-15T02:30:03.875Z,0
2016-12-15T02:31:03.891Z,0
2016-12-15T02:32:03.907Z,0
2016-12-15T02:33:03.974Z,0
2016-12-15T02:34:03.940Z,0
2016-12-15T02:35:18.875Z,0
2016-12-15T02:37:03.989Z,0
2016-12-15T02:38:04.013Z,0
2016-12-15T02:39:18.946Z,0
2016-12-15T02:40:04.044Z,0
2016-12-15T02:41:04.362Z,0
2016-12-15T02:42:04.102Z,0
2016-12-15T02:43:04.091Z,0
2016-12-15T02:44:04.107Z,0
2016-12-15T02:45:04.123Z,0
2016-12-15T02:46:04.142Z,0
2016-12-15T02:47:04.158Z,0
2016-12-15T02:48:04.176Z,0
2016-12-15T02:49:04.492Z,0
2016-12-15T02:50:19.129Z,0
2016-12-15T02:51:04.225Z,0
2016-12-15T02:52:04.245Z,0
2016-12-15T02:53:04.256Z,0
2016-12-15T02:54:04.324Z,0
2016-12-15T02:55:04.292Z,0
2016-12-15T02:56:04.311Z,0
2016-12-15T02:57:04.328Z,0
2016-12-15T02:58:04.340Z,0
2016-12-15T02:59:04.355Z,0
2016-12-15T03:00:04.399Z,0
2016-12-15T03:01:04.392Z,0
2016-12-15T03:02:04.416Z,0
2016-12-15T03:03:19.347Z,0
2016-12-15T03:05:04.465Z,0
2016-12-15T03:06:04.478Z,0
2016-12-15T03:07:04.494Z,0
2016-12-15T03:08:04.540Z,0
2016-12-15T03:09:04.524Z,0
2016-12-15T03:10:04.544Z,0
2016-12-15T03:11:19.475Z,0
2016-12-15T03:12:04.576Z,0
2016-12-15T03:13:04.591Z,0
2016-12-15T03:14:04.607Z,0
2016-12-15T03:16:04.644Z,0
2016-12-15T03:17:04.660Z,0
2016-12-15T03:18:19.593Z,0
2016-12-15T03:19:04.722Z,0
2016-12-15T03:20:04.709Z,0
2016-12-15T03:21:04.725Z,0
2016-12-15T03:23:04.762Z,0
2016-12-15T03:24:04.778Z,0
2016-12-15T03:25:04.798Z,0
2016-12-15T03:26:04.811Z,0
2016-12-15T03:27:19.743Z,0
2016-12-15T03:28:04.845Z,0
2016-12-15T03:29:04.862Z,0
2016-12-15T03:30:04.879Z,0
2016-12-15T03:31:04.898Z,0
2016-12-15T03:32:05.208Z,0
2016-12-15T03:33:19.879Z,0
2016-12-15T03:34:19.861Z,0
2016-12-15T03:35:04.968Z,0
2016-12-15T03:36:04.978Z,0
2016-12-15T03:37:05.000Z,0
2016-12-15T03:38:05.313Z,0
2016-12-15T03:39:05.034Z,0
2016-12-15T03:41:05.062Z,0
2016-12-15T03:42:05.079Z,0
2016-12-15T03:43:20.010Z,0
2016-12-15T03:44:05.159Z,0
2016-12-15T03:45:05.130Z,0
2016-12-15T03:46:05.143Z,0
2016-12-15T03:47:05.161Z,0
2016-12-15T03:48:05.178Z,0
2016-12-15T03:49:05.195Z,0
2016-12-15T03:50:05.218Z,0
2016-12-15T03:51:20.149Z,0
2016-12-15T03:52:05.246Z,0
2016-12-15T03:54:05.289Z,0
2016-12-15T03:55:05.622Z,0
2016-12-15T03:56:05.312Z,0
2016-12-15T03:57:05.330Z,0
2016-12-15T03:58:05.345Z,0
2016-12-15T03:59:20.283Z,0
2016-12-15T04:00:05.377Z,0
2016-12-15T04:01:05.398Z,0
2016-12-15T04:02:05.418Z,0
2016-12-15T04:03:05.435Z,0
2016-12-15T04:04:05.452Z,0
2016-12-15T04:05:05.461Z,0
2016-12-15T04:06:20.397Z,0
2016-12-15T04:07:05.497Z,0
2016-12-15T04:08:05.515Z,0
2016-12-15T04:09:05.528Z,0
2016-12-15T04:10:05.548Z,0
2016-12-15T04:11:05.569Z,0
2016-12-15T04:13:05.909Z,0
2016-12-15T04:14:20.532Z,0
2016-12-15T04:15:05.633Z,0
2016-12-15T04:16:05.647Z,0
2016-12-15T04:17:05.664Z,0
2016-12-15T04:18:05.685Z,0
2016-12-15T04:19:20.618Z,0
2016-12-15T04:20:06.028Z,0
2016-12-15T04:21:20.650Z,0
2016-12-15T04:22:05.749Z,0
2016-12-15T04:23:05.771Z,0
2016-12-15T04:24:05.787Z,0
2016-12-15T04:25:05.807Z,0
2016-12-15T04:26:05.824Z,0
2016-12-15T04:28:05.849Z,0
2016-12-15T04:29:05.869Z,0
2016-12-15T04:30:05.885Z,0
2016-12-15T04:31:05.901Z,0
2016-12-15T04:32:05.919Z,0
2016-12-15T04:33:06.289Z,0
2016-12-15T04:34:20.871Z,0
2016-12-15T04:35:05.971Z,0
2016-12-15T04:36:05.988Z,0
2016-12-15T04:37:06.002Z,0
2016-12-15T04:38:06.020Z,0
2016-12-15T04:39:06.036Z,0
2016-12-15T04:40:20.969Z,0
2016-12-15T04:41:20.987Z,0
2016-12-15T04:42:21.007Z,0
2016-12-15T04:43:06.106Z,0
2016-12-15T04:45:06.141Z,0
2016-12-15T04:46:21.070Z,0
2016-12-15T04:47:06.172Z,0
2016-12-15T04:48:06.219Z,0
2016-12-15T04:49:06.203Z,0
2016-12-15T04:50:06.231Z,0
2016-12-15T04:51:06.240Z,0
2016-12-15T04:52:06.305Z,0
2016-12-15T04:53:06.272Z,0
2016-12-15T04:54:06.288Z,0
2016-12-15T04:55:06.305Z,0
2016-12-15T04:56:06.323Z,0
2016-12-15T04:57:06.350Z,0
2016-12-15T04:58:06.404Z,0
2016-12-15T04:59:06.377Z,0
2016-12-15T05:00:06.392Z,0
2016-12-15T05:01:06.406Z,0
2016-12-15T05:02:21.339Z,0
2016-12-15T05:03:06.441Z,0
2016-12-15T05:04:06.457Z,0
2016-12-15T05:05:06.471Z,0
2016-12-15T05:06:06.518Z,0
2016-12-15T05:07:06.507Z,0
2016-12-15T05:08:06.523Z,0
2016-12-15T05:09:21.489Z,0
2016-12-15T05:10:06.587Z,0
2016-12-15T05:11:06.580Z,0
2016-12-15T05:12:06.590Z,0
2016-12-15T05:13:06.640Z,0
2016-12-15T05:14:06.625Z,0
2016-12-15T05:15:06.641Z,0
2016-12-15T05:16:06.658Z,0
2016-12-15T05:17:06.679Z,0
2016-12-15T05:18:21.607Z,0
2016-12-15T05:19:06.709Z,0
2016-12-15T05:20:06.725Z,0
2016-12-15T05:21:06.743Z,0
2016-12-15T05:22:06.764Z,0
2016-12-15T05:23:06.774Z,0
2016-12-15T05:24:06.797Z,0
2016-12-15T05:25:21.726Z,0
2016-12-15T05:26:06.825Z,0
2016-12-15T05:27:06.844Z,0
2016-12-15T05:28:06.863Z,0
2016-12-15T05:29:21.794Z,0
2016-12-15T05:30:06.899Z,0
2016-12-15T05:31:06.912Z,0
2016-12-15T05:32:06.931Z,0
2016-12-15T05:33:06.945Z,0
2016-12-15T05:34:21.881Z,0
2016-12-15T05:35:06.980Z,0
2016-12-15T05:36:07.002Z,0
2016-12-15T05:37:07.061Z,0
2016-12-15T05:38:07.035Z,0
2016-12-15T05:39:21.963Z,0
2016-12-15T05:40:07.062Z,0
2016-12-15T05:41:07.080Z,0
2016-12-15T05:42:22.012Z,0
2016-12-15T05:43:07.111Z,0
2016-12-15T05:44:07.128Z,0
2016-12-15T05:45:22.063Z,0
2016-12-15T05:46:07.167Z,0
2016-12-15T05:47:07.179Z,0
2016-12-15T05:48:07.200Z,0
2016-12-15T05:49:37.054Z,0
2016-12-15T05:50:07.233Z,0
2016-12-15T05:51:07.247Z,0
2016-12-15T05:52:07.265Z,0
2016-12-15T05:53:22.200Z,0
2016-12-15T05:54:22.217Z,0
2016-12-15T05:55:07.322Z,0
2016-12-15T05:56:07.330Z,0
2016-12-15T05:57:07.385Z,0
2016-12-15T05:58:07.366Z,0
2016-12-15T05:59:07.384Z,0
2016-12-15T06:01:07.420Z,0
2016-12-15T06:03:07.450Z,0
2016-12-15T06:04:07.467Z,0
2016-12-15T06:05:07.504Z,0
2016-12-15T06:06:07.501Z,0
2016-12-15T06:07:07.517Z,0
2016-12-15T06:08:07.533Z,0
2016-12-15T06:09:07.551Z,0
2016-12-15T06:10:07.817Z,0
2016-12-15T06:11:07.583Z,0
2016-12-15T06:12:07.604Z,0
2016-12-15T06:13:07.651Z,0
2016-12-15T06:14:07.633Z,0
2016-12-15T06:15:22.569Z,0
2016-12-15T06:16:22.589Z,0
2016-12-15T06:17:07.693Z,0
2016-12-15T06:18:07.703Z,0
2016-12-15T06:19:07.719Z,0
2016-12-15T06:20:07.748Z,0
2016-12-15T06:21:22.671Z,0
2016-12-15T06:22:07.767Z,0
2016-12-15T06:23:07.835Z,0
2016-12-15T06:24:07.802Z,0
2016-12-15T06:26:22.753Z,0
2016-12-15T06:27:07.856Z,0
2016-12-15T06:28:07.871Z,0
2016-12-15T06:29:23.106Z,0
2016-12-15T06:30:07.905Z,0
2016-12-15T06:31:07.921Z,0
2016-12-15T06:32:07.935Z,0
2016-12-15T06:33:07.950Z,0
2016-12-15T06:34:08.017Z,0
2016-12-15T06:35:07.993Z,0
2016-12-15T06:36:08.003Z,0
2016-12-15T06:37:22.990Z,4
2016-12-15T06:38:08.040Z,4
2016-12-15T06:39:08.052Z,0
2016-12-15T06:40:08.071Z,0
2016-12-15T06:41:08.087Z,4
2016-12-15T06:42:23.021Z,4
2016-12-15T06:43:08.122Z,0
2016-12-15T06:44:08.135Z,4
2016-12-15T06:46:08.169Z,4
2016-12-15T06:48:08.204Z,4
2016-12-15T06:49:08.521Z,8
2016-12-15T06:50:08.240Z,8
2016-12-15T06:51:08.253Z,12
2016-12-15T06:52:08.271Z,8
2016-12-15T06:53:23.205Z,8
2016-12-15T06:54:08.304Z,12
2016-12-15T06:55:08.322Z,12
2016-12-15T06:56:08.337Z,16
2016-12-15T06:57:08.352Z,16
2016-12-15T06:58:08.371Z,16
2016-12-15T06:59:08.391Z,20
2016-12-15T07:00:08.404Z,20
2016-12-15T07:02:08.439Z,28
2016-12-15T07:03:08.452Z,28
2016-12-15T07:04:08.473Z,28
2016-12-15T07:05:08.487Z,32
2016-12-15T07:06:08.504Z,36
2016-12-15T07:07:08.518Z,40
2016-12-15T07:08:08.543Z,44
2016-12-15T07:09:23.469Z,48
2016-12-15T07:10:08.570Z,52
2016-12-15T07:11:08.588Z,56
2016-12-15T07:12:08.605Z,56
2016-12-15T07:13:23.540Z,68
2016-12-15T07:14:08.636Z,68
2016-12-15T07:15:08.656Z,72
2016-12-15T07:16:23.587Z,80
2016-12-15T07:17:08.692Z,84
2016-12-15T07:18:08.712Z,88
2016-12-15T07:19:08.719Z,96
2016-12-15T07:20:23.655Z,100
2016-12-15T07:21:08.808Z,100
2016-12-15T07:22:08.772Z,104
2016-12-15T07:23:08.789Z,108
2016-12-15T07:24:23.723Z,116
2016-12-15T07:25:08.824Z,116
2016-12-15T07:26:08.840Z,120
2016-12-15T07:27:08.878Z,128
2016-12-15T07:28:08.873Z,136
2016-12-15T07:29:08.895Z,148
2016-12-15T07:30:08.907Z,152
2016-12-15T07:31:23.843Z,164
2016-12-15T07:32:08.990Z,172
2016-12-15T07:33:08.958Z,180
2016-12-15T07:34:23.894Z,192
2016-12-15T07:35:23.910Z,200
2016-12-15T07:36:09.019Z,204
2016-12-15T07:38:09.043Z,208
2016-12-15T07:39:09.058Z,216
2016-12-15T07:40:09.078Z,224
2016-12-15T07:41:09.095Z,228
2016-12-15T07:42:09.113Z,240
2016-12-15T07:43:09.127Z,252
2016-12-15T07:44:09.144Z,264
2016-12-15T07:45:24.078Z,276
2016-12-15T07:46:09.175Z,284
2016-12-15T07:49:09.226Z,312
2016-12-15T07:51:24.178Z,320
2016-12-15T07:53:09.295Z,336
2016-12-15T07:54:09.313Z,344
2016-12-15T07:55:09.634Z,364
2016-12-15T07:56:24.269Z,372
2016-12-15T07:57:09.364Z,380
2016-12-15T07:58:09.380Z,384
2016-12-15T07:59:09.402Z,388
2016-12-15T08:00:09.416Z,404
2016-12-15T08:01:09.429Z,412
2016-12-15T08:03:09.464Z,424
2016-12-15T08:04:24.398Z,436
2016-12-15T08:05:09.497Z,440
2016-12-15T08:06:09.514Z,448
2016-12-15T08:07:09.535Z,452
2016-12-15T08:08:09.553Z,460
2016-12-15T08:09:09.568Z,472
2016-12-15T08:10:09.592Z,484
2016-12-15T08:11:09.606Z,496
2016-12-15T08:12:24.535Z,500
2016-12-15T08:13:09.633Z,504
2016-12-15T08:14:09.653Z,508
2016-12-15T08:15:09.669Z,516
2016-12-15T08:16:24.605Z,528
2016-12-15T08:17:09.702Z,544
2016-12-15T08:18:09.770Z,564
2016-12-15T08:19:09.739Z,584
2016-12-15T08:20:09.752Z,592
2016-12-15T08:21:09.774Z,596
2016-12-15T08:23:09.807Z,612
2016-12-15T08:24:09.822Z,624
2016-12-15T08:25:09.845Z,640
2016-12-15T08:26:09.855Z,656
2016-12-15T08:27:09.873Z,656
2016-12-15T08:28:24.807Z,648
2016-12-15T08:29:09.913Z,648
2016-12-15T08:30:09.927Z,648
2016-12-15T08:31:09.943Z,664
2016-12-15T08:33:09.975Z,688
2016-12-15T08:34:09.999Z,696
2016-12-15T08:35:24.932Z,704
2016-12-15T08:37:10.045Z,740
2016-12-15T08:38:10.065Z,760
2016-12-15T08:40:10.096Z,808
2016-12-15T08:41:10.165Z,824
2016-12-15T08:42:10.130Z,836
2016-12-15T08:43:10.146Z,856
2016-12-15T08:44:25.083Z,876
2016-12-15T08:45:10.185Z,896
2016-12-15T08:46:25.120Z,932
2016-12-15T08:47:10.214Z,948
2016-12-15T08:48:10.232Z,976
2016-12-15T08:49:25.170Z,1004
2016-12-15T08:50:10.267Z,1012
2016-12-15T08:51:10.284Z,1024
2016-12-15T08:52:10.300Z,1036
2016-12-15T08:53:25.238Z,1048
2016-12-15T08:54:10.333Z,1064
2016-12-15T08:55:10.355Z,1088
2016-12-15T08:57:10.416Z,1156
2016-12-15T08:58:10.406Z,1188
2016-12-15T08:59:25.344Z,1256
2016-12-15T09:00:10.441Z,1292
2016-12-15T09:01:10.806Z,1320
2016-12-15T09:02:10.475Z,1328
2016-12-15T09:03:10.495Z,1340
2016-12-15T09:04:10.508Z,1352
2016-12-15T09:05:10.525Z,1392
2016-12-15T09:06:25.460Z,1460
2016-12-15T09:07:10.566Z,1508
2016-12-15T09:08:10.575Z,1588
2016-12-15T09:09:10.597Z,1672
2016-12-15T09:10:10.614Z,1756
2016-12-15T09:11:25.546Z,1840
2016-12-15T09:12:10.651Z,1876
2016-12-15T09:13:10.666Z,1904
2016-12-15T09:14:10.681Z,1948
2016-12-15T09:15:10.744Z,2016
2016-12-15T09:16:10.716Z,2096
2016-12-15T09:17:10.730Z,2196
2016-12-15T09:19:10.771Z,2504
2016-12-15T09:20:25.704Z,2632
2016-12-15T09:21:10.805Z,2648
2016-12-15T09:22:10.819Z,2684
2016-12-15T09:23:25.813Z,2708
2016-12-15T09:24:25.774Z,2648
2016-12-15T09:25:10.874Z,2616
2016-12-15T09:26:25.810Z,2632
2016-12-15T09:27:25.824Z,2680
2016-12-15T09:28:10.924Z,2688
2016-12-15T09:29:11.272Z,2640
2016-12-15T09:30:10.959Z,2604
2016-12-15T09:31:25.893Z,2712
2016-12-15T09:32:10.995Z,2752
2016-12-15T09:33:11.010Z,2752
2016-12-15T09:34:25.950Z,2788
2016-12-15T09:35:25.967Z,2864
2016-12-15T09:36:11.069Z,2892
2016-12-15T09:37:26.000Z,2892
2016-12-15T09:38:26.016Z,2856
2016-12-15T09:39:11.116Z,2832
2016-12-15T09:40:26.054Z,2804
2016-12-15T09:41:11.152Z,2800
2016-12-15T09:42:11.201Z,2860
2016-12-15T09:43:11.190Z,2928
2016-12-15T09:44:11.207Z,2992
2016-12-15T09:45:11.225Z,3000
2016-12-15T09:46:11.242Z,2964
2016-12-15T09:47:26.174Z,2824
2016-12-15T09:48:11.276Z,2780
2016-12-15T09:49:11.344Z,2824
2016-12-15T09:50:11.311Z,2872
2016-12-15T09:51:11.330Z,2920
2016-12-15T09:52:11.347Z,2992
2016-12-15T09:54:11.380Z,2984
2016-12-15T09:55:11.400Z,2916
2016-12-15T09:56:11.415Z,2916
2016-12-15T09:57:11.439Z,2888
2016-12-15T09:58:11.907Z,2868
2016-12-15T09:59:11.469Z,2872
2016-12-15T10:00:12.138Z,2940
2016-12-15T10:01:11.505Z,3072
2016-12-15T10:02:11.523Z,3168
2016-12-15T10:03:26.463Z,3196
2016-12-15T10:04:26.529Z,3200
2016-12-15T10:05:11.901Z,3168
2016-12-15T10:06:11.597Z,3168
2016-12-15T10:07:11.610Z,3160
2016-12-15T10:08:11.631Z,3104
2016-12-15T10:09:11.652Z,3056
2016-12-15T10:10:26.885Z,3012
2016-12-15T10:11:11.680Z,3012
2016-12-15T10:12:11.700Z,2964
2016-12-15T10:13:26.637Z,2896
2016-12-15T10:14:26.658Z,2828
2016-12-15T10:16:11.776Z,2772
2016-12-15T10:17:11.788Z,2724
2016-12-15T10:18:11.807Z,2700
2016-12-15T10:19:26.743Z,2708
2016-12-15T10:20:11.842Z,2740
2016-12-15T10:21:26.782Z,2788
2016-12-15T10:23:26.816Z,2868
2016-12-15T10:24:11.917Z,2860
2016-12-15T10:25:11.937Z,2856
2016-12-15T10:26:26.866Z,2888
2016-12-15T10:27:11.967Z,2920
2016-12-15T10:28:11.990Z,2952
2016-12-15T10:29:12.001Z,2948
2016-12-15T10:30:26.938Z,2880
2016-12-15T10:32:12.059Z,2852
2016-12-15T10:33:12.076Z,2832
2016-12-15T10:34:27.015Z,2772
2016-12-15T10:35:12.110Z,2748
2016-12-15T10:36:12.127Z,2728
2016-12-15T10:37:12.152Z,2696
2016-12-15T10:38:12.179Z,2716
2016-12-15T10:39:12.181Z,2748
2016-12-15T10:40:12.203Z,2816
2016-12-15T10:41:27.135Z,2944
2016-12-15T10:42:12.234Z,2948
2016-12-15T10:43:12.253Z,2876
2016-12-15T10:44:12.273Z,2756
2016-12-15T10:45:27.208Z,2684
2016-12-15T10:46:12.309Z,2696
2016-12-15T10:47:12.323Z,2716
2016-12-15T10:48:12.343Z,2712
2016-12-15T10:49:12.362Z,2688
2016-12-15T10:50:12.379Z,2696
2016-12-15T10:51:12.400Z,2664
2016-12-15T10:52:12.420Z,2616
2016-12-15T10:53:12.733Z,2600
2016-12-15T10:54:27.371Z,2548
2016-12-15T10:55:12.466Z,2520
2016-12-15T10:56:12.500Z,2528
2016-12-15T10:57:12.501Z,2572
2016-12-15T10:58:12.523Z,2644
2016-12-15T10:59:12.538Z,2664
2016-12-15T11:00:12.560Z,2636
2016-12-15T11:01:27.493Z,2604
2016-12-15T11:02:27.510Z,2608
2016-12-15T11:03:12.612Z,2628
2016-12-15T11:04:12.632Z,2604
2016-12-15T11:05:12.646Z,2544
2016-12-15T11:06:27.583Z,2432
2016-12-15T11:07:12.683Z,2392
2016-12-15T11:08:12.700Z,2376
2016-12-15T11:09:12.718Z,2376
2016-12-15T11:10:12.739Z,2396
2016-12-15T11:11:12.753Z,2380
2016-12-15T11:12:12.826Z,2364
2016-12-15T11:13:12.788Z,2368
2016-12-15T11:14:27.726Z,2332
2016-12-15T11:15:12.830Z,2308
2016-12-15T11:16:12.844Z,2312
2016-12-15T11:17:27.782Z,2320
2016-12-15T11:19:12.900Z,2304
2016-12-15T11:20:12.918Z,2272
2016-12-15T11:21:12.938Z,2252
2016-12-15T11:22:27.893Z,2252
2016-12-15T11:23:12.971Z,2280
2016-12-15T11:24:12.995Z,2324
2016-12-15T11:25:13.012Z,2368
2016-12-15T11:26:13.026Z,2404
2016-12-15T11:27:13.045Z,2384
2016-12-15T11:28:13.060Z,2300
2016-12-15T11:29:13.382Z,2224
2016-12-15T11:30:13.100Z,2176
2016-12-15T11:32:13.136Z,2192
2016-12-15T11:33:28.066Z,2144
2016-12-15T11:34:13.169Z,2072
2016-12-15T11:35:13.187Z,2024
2016-12-15T11:36:13.524Z,1992
2016-12-15T11:37:13.218Z,1964
2016-12-15T11:38:28.156Z,1920
2016-12-15T11:39:13.262Z,1912
2016-12-15T11:40:13.274Z,1920
2016-12-15T11:41:13.291Z,1944
2016-12-15T11:42:13.308Z,1968
2016-12-15T11:43:13.337Z,2016
2016-12-15T11:44:13.342Z,2068
2016-12-15T11:45:28.279Z,2160
2016-12-15T11:46:13.385Z,2180
2016-12-15T11:47:13.406Z,2196
2016-12-15T11:48:13.422Z,2184
2016-12-15T11:49:13.431Z,2148
2016-12-15T11:50:13.454Z,2144
2016-12-15T11:51:13.472Z,2196
2016-12-15T11:52:13.491Z,2264
2016-12-15T11:53:13.503Z,2344
2016-12-15T11:54:28.443Z,2388
2016-12-15T11:55:13.542Z,2372
2016-12-15T11:56:13.561Z,2320
2016-12-15T11:57:13.586Z,2304
2016-12-15T11:58:13.592Z,2328
2016-12-15T11:59:13.614Z,2284
2016-12-15T12:00:28.553Z,2276
2016-12-15T12:01:28.563Z,2272
2016-12-15T12:02:13.669Z,2224
2016-12-15T12:03:13.678Z,2196
2016-12-15T12:04:28.618Z,2164
2016-12-15T12:05:28.633Z,2176
2016-12-15T12:06:13.733Z,2180
2016-12-15T12:07:13.764Z,2220
2016-12-15T12:08:13.769Z,2264
2016-12-15T12:09:28.704Z,2280
2016-12-15T12:10:13.803Z,2256
2016-12-15T12:11:13.820Z,2200
2016-12-15T12:12:13.838Z,2108
2016-12-15T12:13:13.855Z,2044
2016-12-15T12:14:28.792Z,2028
2016-12-15T12:15:14.221Z,2028
2016-12-15T12:16:28.831Z,2012
2016-12-15T12:17:28.848Z,2012
2016-12-15T12:18:13.943Z,2004
2016-12-15T12:19:13.962Z,2016
2016-12-15T12:20:28.897Z,1996
2016-12-15T12:21:13.997Z,1980
2016-12-15T12:23:14.032Z,1940
2016-12-15T12:24:14.050Z,1948
2016-12-15T12:25:14.066Z,1956
2016-12-15T12:26:14.081Z,1944
2016-12-15T12:27:14.101Z,1928
2016-12-15T12:28:14.124Z,1908
2016-12-15T12:29:14.138Z,1852
2016-12-15T12:30:14.154Z,1808
2016-12-15T12:31:14.171Z,1788
2016-12-15T12:32:29.434Z,1756
2016-12-15T12:33:29.123Z,1736
2016-12-15T12:34:14.234Z,1732
2016-12-15T12:35:14.275Z,1716
2016-12-15T12:36:29.183Z,1696
2016-12-15T12:37:29.200Z,1680
2016-12-15T12:38:14.293Z,1660
2016-12-15T12:39:14.345Z,1624
2016-12-15T12:40:14.339Z,1596
2016-12-15T12:41:29.268Z,1560
2016-12-15T12:42:14.374Z,1548
2016-12-15T12:43:14.389Z,1560
2016-12-15T12:44:14.404Z,1564
2016-12-15T12:45:14.499Z,1560
2016-12-15T12:46:14.436Z,1536
2016-12-15T12:47:14.457Z,1508
2016-12-15T12:48:14.471Z,1496
2016-12-15T12:49:14.489Z,1484
2016-12-15T12:50:14.508Z,1492
2016-12-15T12:51:14.523Z,1500
2016-12-15T12:53:29.477Z,1424
2016-12-15T12:54:14.583Z,1396
2016-12-15T12:55:14.647Z,1372
2016-12-15T12:56:14.612Z,1340
2016-12-15T12:57:29.552Z,1320
2016-12-15T12:58:14.650Z,1312
2016-12-15T12:59:29.587Z,1308
2016-12-15T13:00:14.686Z,1296
2016-12-15T13:01:14.700Z,1296
2016-12-15T13:02:14.717Z,1312
2016-12-15T13:03:14.785Z,1296
2016-12-15T13:04:29.671Z,1276
2016-12-15T13:05:14.796Z,1268
2016-12-15T13:06:14.817Z,1256
2016-12-15T13:07:14.830Z,1240
2016-12-15T13:08:14.826Z,1236
2016-12-15T13:09:14.839Z,1236
2016-12-15T13:10:14.857Z,1240
2016-12-15T13:11:14.875Z,1232
2016-12-15T13:12:14.894Z,1204
2016-12-15T13:13:29.828Z,1184
2016-12-15T13:14:15.133Z,1156
2016-12-15T13:15:15.250Z,1148
2016-12-15T13:16:29.884Z,1140
2016-12-15T13:17:14.982Z,1132
2016-12-15T13:18:14.997Z,1128
2016-12-15T13:19:29.939Z,1116
2016-12-15T13:20:15.033Z,1096
2016-12-15T13:21:15.052Z,1064
2016-12-15T13:22:15.069Z,1048
2016-12-15T13:23:30.004Z,1036
2016-12-15T13:24:15.104Z,1016
2016-12-15T13:26:15.137Z,992
2016-12-15T13:27:15.206Z,996
2016-12-15T13:28:15.169Z,984
2016-12-15T13:29:30.107Z,968
2016-12-15T13:30:15.207Z,956
2016-12-15T13:31:15.225Z,936
2016-12-15T13:32:15.242Z,916
2016-12-15T13:33:15.261Z,904
2016-12-15T13:34:15.286Z,908
2016-12-15T13:35:15.292Z,904
2016-12-15T13:36:15.361Z,896
2016-12-15T13:37:15.331Z,900
2016-12-15T13:38:15.345Z,896
2016-12-15T13:39:15.362Z,880
2016-12-15T13:41:15.756Z,828
2016-12-15T13:42:15.419Z,800
2016-12-15T13:43:15.437Z,780
2016-12-15T13:44:30.369Z,764
2016-12-15T13:45:15.471Z,756
2016-12-15T13:46:15.486Z,748
2016-12-15T13:47:15.507Z,744
2016-12-15T13:48:15.522Z,724
2016-12-15T13:49:15.540Z,704
2016-12-15T13:50:30.475Z,684
2016-12-15T13:51:15.584Z,672
2016-12-15T13:52:15.897Z,656
2016-12-15T13:53:15.612Z,652
2016-12-15T13:54:15.633Z,648
2016-12-15T13:55:15.676Z,644
2016-12-15T13:56:15.664Z,652
2016-12-15T13:57:15.682Z,664
2016-12-15T13:58:15.695Z,676
2016-12-15T13:59:15.718Z,664
2016-12-15T14:00:15.735Z,644
2016-12-15T14:01:15.748Z,624
2016-12-15T14:02:15.766Z,608
2016-12-15T14:03:15.780Z,596
2016-12-15T14:04:15.800Z,572
2016-12-15T14:05:30.736Z,548
2016-12-15T14:06:30.753Z,540
2016-12-15T14:07:30.768Z,524
2016-12-15T14:08:15.869Z,512
2016-12-15T14:10:30.824Z,484
2016-12-15T14:11:15.925Z,480
2016-12-15T14:12:15.943Z,472
2016-12-15T14:13:15.952Z,468
2016-12-15T14:14:15.971Z,460
2016-12-15T14:15:15.991Z,444
2016-12-15T14:16:30.931Z,432
2016-12-15T14:17:16.031Z,416
2016-12-15T14:18:16.049Z,400
2016-12-15T14:19:16.063Z,384
2016-12-15T14:20:16.082Z,360
2016-12-15T14:21:16.151Z,336
2016-12-15T14:22:16.115Z,320
2016-12-15T14:23:31.046Z,308
2016-12-15T14:24:16.149Z,300
2016-12-15T14:25:16.173Z,292
2016-12-15T14:27:16.236Z,280
2016-12-15T14:28:16.219Z,272
2016-12-15T14:29:16.233Z,256
2016-12-15T14:31:16.319Z,232
2016-12-15T14:32:31.201Z,220
2016-12-15T14:33:16.303Z,208
2016-12-15T14:34:16.325Z,200
2016-12-15T14:35:16.336Z,192
2016-12-15T14:36:16.352Z,180
2016-12-15T14:37:16.371Z,172
2016-12-15T14:38:16.386Z,164
2016-12-15T14:39:16.407Z,152
2016-12-15T14:40:16.424Z,144
2016-12-15T14:41:31.676Z,136
2016-12-15T14:42:16.455Z,132
2016-12-15T14:43:16.480Z,124
2016-12-15T14:44:16.497Z,120
2016-12-15T14:45:16.511Z,112
2016-12-15T14:46:16.554Z,104
2016-12-15T14:47:16.648Z,96
2016-12-15T14:48:31.482Z,88
2016-12-15T14:49:16.604Z,84
2016-12-15T14:50:16.597Z,76
2016-12-15T14:51:16.617Z,72
2016-12-15T14:52:16.932Z,68
2016-12-15T14:53:31.568Z,64
2016-12-15T14:54:16.669Z,60